Waterloo, IA (50701)

9:40 AM CDT on August 29, 2015 (GMT -0500)
Columbus Dr - Waterloo | | Change Station
CLOSE
Current Station
Personal Weather Station
Location: Waterloo, IA
Elevation: 910 ft
Nearby Weather Stations
Active Advisory: Flood Warning Active Notice: Record Report

Elev 910 ft 42.47 °N, 92.34 °W | Updated 5 seconds ago

Overcast
Overcast
64.2 °F
Feels Like 64.2 °F
N
2.9
Wind Variable Wind from NE
Gusts 3.0 mph

Today
High -- | Low -- °F
--% Chance of Precip.
Yesterday
High -- | Low -- °F
Precip. -- in
6:31 AM 7:48 PM
Full, 100% visible
Pressure 30.00 in
Visibility 8.0 miles
Clouds Overcast 500 ft
Dew Point 64 °F
Humidity 99%
Rainfall 0.33 in
Snow Depth Not available.
UV 1 out of 12
Pollen 8.00 out of 12
Air Quality Not available.
Flu Activity Not available.
METAR KALO 291354Z AUTO 02009KT 8SM OVC005 18/17 A3001 RMK AO2 SLP159 T01780172
Pressure 30.00 in
Visibility 8.0 miles
Clouds Overcast 500 ft
Dew Point 64 °F
Humidity 99%
Rainfall 0.33 in
Snow Depth Not available.
UV 1 out of 12
Pollen 8.00 out of 12
Air Quality Not available.
Flu Activity Not available.
METAR KALO 291354Z AUTO 02009KT 8SM OVC005 18/17 A3001 RMK AO2 SLP159 T01780172

10-Day Weather Forecast

×

Almanac

Astronomy

Aug. 29, 2015 Rise Set
Actual Time
Civil Twilight
Nautical Twilight
Astronomical Twilight
Moon
Length of Visible Light
Length of Day
Tomorrow will be .
, % of the Moon is Illuminated

Today's Extremes

State Highs State Lows

Community

WunderPhotos

Upload Photos

1,850,707 photos uploaded!

WunderBlogs® & News

Nearby

Air Quality

  Air Quality AQ Index Pollutant
Not available.

Snow Depth

Station Depth Elevation

Earthquake Activity

City Distance Mag. Time & Date
Minimum magnitude displayed is 2.5.

Coastal Water Temperatures

Place Temperature

Stations

Nearby Weather Stations

Station Location Temp. Windchill Dew Point Humidity Wind Precip. Elev Updated Type
                   
Flood Warning
Statement as of 7:32 AM CDT on August 29, 2015

... Flood Warning now in effect until Sunday afternoon...

The Flood Warning continues for
the Black Hawk creek at Hudson... or from the Black Hawk-Grundy
County line... to the Cedar River in Waterloo.
* Until Sunday afternoon.
* At 5:45 am Saturday the stage was 10.7 feet... or 3.3 feet below
flood stage.
* Flood stage is 14.0 feet.
* No flooding is occurring and minor flooding is forecast.
* Forecast... rise to flood stage this evening. Continue rising to
14.4 feet... or 0.4 feet above flood stage... after midnight
tonight. Go below flood stage Sunday afternoon.
* Impact... at 14.5 feet... portions of ranchero Road west of US 63
are flooded.


Lat... Lon 4248 9228 4235 9247 4235 9254 4242 9254
      4253 9238